createdAt,value
2019-05-09T00:00:06.138Z,8.90
2019-05-09T00:02:39.669Z,8.03
2019-05-09T00:05:10.732Z,7.83
2019-05-09T00:07:43.799Z,9.63
2019-05-09T00:10:14.590Z,7.07
2019-05-09T00:12:45.520Z,10.37
2019-05-09T00:15:16.616Z,9.17
2019-05-09T00:17:47.656Z,7.97
2019-05-09T00:20:43.666Z,8.73
2019-05-09T00:23:14.649Z,7.80
2019-05-09T00:25:45.558Z,7.03
2019-05-09T00:28:16.471Z,10.27
2019-05-09T00:31:06.796Z,8.10
2019-05-09T00:33:37.612Z,7.67
2019-05-09T00:36:08.406Z,8.03
2019-05-09T00:38:43.446Z,7.17
2019-05-09T00:41:14.367Z,8.53
2019-05-09T00:43:54.271Z,6.67
2019-05-09T00:46:34.169Z,10.53
2019-05-09T00:49:25.273Z,7.23
2019-05-09T00:51:56.073Z,8.37
2019-05-09T00:54:26.903Z,10.80
2019-05-09T00:56:57.660Z,9.70
2019-05-09T00:59:29.491Z,8.03
2019-05-09T01:02:00.399Z,7.80
2019-05-09T01:04:33.304Z,9.50
2019-05-09T01:07:03.837Z,8.23
2019-05-09T01:09:34.732Z,6.70
2019-05-09T01:12:05.718Z,8.63
2019-05-09T01:14:36.607Z,9.33
2019-05-09T01:17:07.558Z,6.30
2019-05-09T01:19:38.365Z,9.47
2019-05-09T01:22:09.124Z,5.87
2019-05-09T01:24:40.044Z,8.80
2019-05-09T01:27:10.810Z,8.43
2019-05-09T01:29:43.866Z,9.77
2019-05-09T01:32:23.679Z,4.77
2019-05-09T01:34:54.656Z,7.87
2019-05-09T01:37:25.576Z,6.07
2019-05-09T01:39:56.459Z,8.10
2019-05-09T01:42:27.368Z,10.67
2019-05-09T01:44:58.405Z,9.27
2019-05-09T01:47:29.148Z,7.60
2019-05-09T01:50:00.000Z,7.80
2019-05-09T01:52:31.052Z,7.17
2019-05-09T01:55:03.683Z,6.03
2019-05-09T01:57:34.371Z,6.83
2019-05-09T02:00:05.881Z,8.40
2019-05-09T02:02:36.988Z,8.50
2019-05-09T02:05:08.402Z,9.33
2019-05-09T02:07:39.200Z,8.57
2019-05-09T02:10:14.057Z,10.53
2019-05-09T02:12:44.911Z,5.03
2019-05-09T02:15:24.769Z,8.27
2019-05-09T02:18:05.255Z,6.33
2019-05-09T02:20:35.550Z,5.97
2019-05-09T02:23:06.469Z,8.77
2019-05-09T02:25:37.294Z,7.40
2019-05-09T02:28:08.101Z,9.50
2019-05-09T02:30:39.185Z,7.17
2019-05-09T02:33:10.241Z,7.23
2019-05-09T02:35:51.756Z,5.00
2019-05-09T02:38:13.606Z,6.63
2019-05-09T02:40:44.448Z,7.97
2019-05-09T02:43:18.465Z,5.73
2019-05-09T02:46:19.076Z,8.57
2019-05-09T02:48:49.988Z,6.37
2019-05-09T02:51:20.927Z,7.80
2019-05-09T02:53:51.930Z,10.63
2019-05-09T02:56:22.864Z,6.27
2019-05-09T02:59:03.189Z,11.20
2019-05-09T03:01:43.998Z,6.97
2019-05-09T03:04:14.937Z,8.20
2019-05-09T03:06:48.900Z,8.30
2019-05-09T03:09:19.170Z,9.10
2019-05-09T03:11:50.088Z,8.00
2019-05-09T03:14:21.109Z,6.10
2019-05-09T03:16:52.014Z,7.63
2019-05-09T03:19:22.892Z,7.60
2019-05-09T03:22:00.283Z,7.60
2019-05-09T03:24:31.718Z,5.87
2019-05-09T03:27:08.640Z,6.77
2019-05-09T03:29:48.922Z,7.13
2019-05-09T03:32:21.462Z,6.13
2019-05-09T03:34:53.467Z,8.60
2019-05-09T03:37:27.743Z,7.47
2019-05-09T03:39:59.333Z,6.47
2019-05-09T03:42:42.581Z,7.40
2019-05-09T03:45:08.174Z,11.80
2019-05-09T03:47:47.830Z,6.20
2019-05-09T03:50:20.055Z,9.67
2019-05-09T03:52:52.375Z,7.27
2019-05-09T03:55:31.716Z,7.03
2019-05-09T03:58:08.572Z,5.60
2019-05-09T04:00:40.567Z,9.07
2019-05-09T04:03:12.750Z,9.67
2019-05-09T04:05:56.647Z,6.73
2019-05-09T04:08:21.345Z,7.47
2019-05-09T04:10:54.335Z,9.47
2019-05-09T04:13:30.097Z,7.60
2019-05-09T04:16:01.432Z,9.10
2019-05-09T04:18:33.124Z,8.53
2019-05-09T04:21:04.892Z,11.70
2019-05-09T04:23:38.625Z,6.53
2019-05-09T04:26:17.830Z,10.37
2019-05-09T04:28:49.397Z,11.47
2019-05-09T04:31:20.767Z,6.97
2019-05-09T04:33:52.001Z,12.93
2019-05-09T04:36:39.261Z,10.10
2019-05-09T04:39:17.348Z,9.00
2019-05-09T04:41:48.410Z,7.93
2019-05-09T04:44:30.394Z,8.93
2019-05-09T04:47:03.489Z,10.57
2019-05-09T04:49:40.920Z,10.43
2019-05-09T04:52:07.817Z,6.33
2019-05-09T04:54:39.128Z,9.70
2019-05-09T04:57:10.901Z,13.17
2019-05-09T04:59:43.149Z,10.67
2019-05-09T05:02:51.401Z,10.67
2019-05-09T05:05:23.204Z,9.70
2019-05-09T05:07:57.245Z,11.03
2019-05-09T05:10:28.110Z,10.23
2019-05-09T05:12:59.761Z,8.50
2019-05-09T05:15:31.540Z,11.40
2019-05-09T05:18:03.775Z,8.20
2019-05-09T05:20:37.990Z,9.10
2019-05-09T05:23:33.938Z,11.00
2019-05-09T05:26:05.636Z,11.87
2019-05-09T05:28:38.202Z,12.60
2019-05-09T05:31:10.442Z,8.67
2019-05-09T05:33:53.782Z,12.07
2019-05-09T05:36:24.010Z,8.53
2019-05-09T05:38:58.298Z,12.00
2019-05-09T05:41:29.421Z,14.33
2019-05-09T05:44:01.208Z,9.07
2019-05-09T05:46:50.944Z,12.40
2019-05-09T05:49:24.088Z,11.27
2019-05-09T05:51:57.510Z,13.53
2019-05-09T05:54:29.011Z,13.43
2019-05-09T05:57:01.022Z,9.30
2019-05-09T05:59:32.728Z,8.97
2019-05-09T06:02:08.329Z,10.23
2019-05-09T06:04:39.569Z,8.57
2019-05-09T06:07:11.663Z,11.70
2019-05-09T06:09:43.756Z,8.90
2019-05-09T06:12:18.313Z,8.03
2019-05-09T06:14:52.215Z,13.17
2019-05-09T06:17:23.910Z,10.23
2019-05-09T06:19:58.653Z,11.60
2019-05-09T06:22:32.782Z,11.83
2019-05-09T06:25:08.988Z,10.37
2019-05-09T06:27:38.286Z,13.70
2019-05-09T06:30:10.599Z,14.13
2019-05-09T06:32:42.849Z,10.03
2019-05-09T06:35:17.641Z,12.27
2019-05-09T06:37:49.739Z,10.60
2019-05-09T06:40:23.997Z,12.20
2019-05-09T06:42:58.947Z,11.90
2019-05-09T06:46:03.216Z,12.50
2019-05-09T06:48:37.733Z,12.50
2019-05-09T06:51:09.216Z,11.73
2019-05-09T06:53:41.199Z,12.30
2019-05-09T06:56:12.894Z,12.13
2019-05-09T06:58:45.104Z,11.97
2019-05-09T07:01:23.271Z,12.67
2019-05-09T07:03:59.859Z,12.57
2019-05-09T07:06:38.579Z,12.57
2019-05-09T07:09:20.820Z,11.73
2019-05-09T07:11:53.015Z,11.50
2019-05-09T07:14:33.991Z,12.53
2019-05-09T07:17:08.221Z,12.53
2019-05-09T07:19:43.771Z,11.07
2019-05-09T07:22:39.441Z,13.03
2019-05-09T07:25:20.756Z,9.40
2019-05-09T07:27:52.884Z,11.27
2019-05-09T07:30:40.574Z,10.03
2019-05-09T07:33:27.845Z,9.93
2019-05-09T07:35:59.699Z,11.17
2019-05-09T07:38:33.015Z,12.13
2019-05-09T07:41:08.619Z,9.67
2019-05-09T07:43:40.111Z,11.97
2019-05-09T07:46:20.298Z,12.87
2019-05-09T07:48:52.449Z,16.73
2019-05-09T07:51:24.488Z,13.03
2019-05-09T07:53:58.701Z,16.33
2019-05-09T07:56:29.967Z,11.33
2019-05-09T07:59:02.150Z,10.13
2019-05-09T08:01:34.631Z,9.00
2019-05-09T08:04:07.509Z,10.83
2019-05-09T08:06:39.967Z,9.00
2019-05-09T08:09:12.169Z,12.30
2019-05-09T08:11:44.378Z,7.93
2019-05-09T08:14:17.611Z,12.80
2019-05-09T08:16:50.191Z,12.93
2019-05-09T08:19:22.276Z,13.10
2019-05-09T08:21:54.463Z,12.03
2019-05-09T08:24:27.739Z,9.30
2019-05-09T08:27:00.363Z,12.17
2019-05-09T08:29:32.131Z,11.13
2019-05-09T08:32:04.195Z,7.50
2019-05-09T08:34:37.805Z,11.47
2019-05-09T08:37:12.569Z,13.93
2019-05-09T08:39:43.654Z,14.50
2019-05-09T08:42:18.013Z,11.93
2019-05-09T08:44:49.519Z,13.00
2019-05-09T08:47:21.751Z,10.30
2019-05-09T08:50:28.150Z,12.03
2019-05-09T08:53:00.684Z,7.63
2019-05-09T08:55:32.763Z,12.00
2019-05-09T08:58:04.522Z,11.03
2019-05-09T09:00:38.784Z,13.43
2019-05-09T09:03:10.216Z,9.03
2019-05-09T09:05:43.438Z,9.87
2019-05-09T09:08:18.089Z,9.53
2019-05-09T09:10:49.496Z,9.77
2019-05-09T09:13:23.510Z,8.07
2019-05-09T09:16:12.223Z,11.77
2019-05-09T09:18:28.800Z,13.13
2019-05-09T09:21:01.204Z,10.47
2019-05-09T09:23:44.221Z,14.13
2019-05-09T09:26:08.112Z,14.37
2019-05-09T09:28:40.464Z,8.83
2019-05-09T09:31:12.725Z,13.30
2019-05-09T09:33:44.897Z,12.43
2019-05-09T09:36:17.818Z,11.77
2019-05-09T09:38:50.538Z,11.03
2019-05-09T09:41:22.070Z,10.97
2019-05-09T09:43:54.363Z,10.27
2019-05-09T09:46:28.369Z,11.57
2019-05-09T09:48:59.291Z,11.30
2019-05-09T09:51:33.707Z,12.13
2019-05-09T09:54:08.546Z,9.33
2019-05-09T09:56:39.559Z,13.57
2019-05-09T09:59:28.222Z,11.07
2019-05-09T10:02:00.659Z,12.27
2019-05-09T10:04:32.821Z,13.57
2019-05-09T10:07:05.016Z,8.20
2019-05-09T10:09:37.619Z,6.83
2019-05-09T10:12:09.700Z,12.17
2019-05-09T10:14:45.797Z,12.43
2019-05-09T10:17:48.146Z,9.07
2019-05-09T10:20:39.050Z,11.50
2019-05-09T10:23:18.266Z,6.63
2019-05-09T10:25:44.790Z,11.70
2019-05-09T10:28:21.350Z,8.20
2019-05-09T10:30:50.586Z,11.90
2019-05-09T10:33:22.902Z,9.20
2019-05-09T10:35:55.235Z,11.03
2019-05-09T10:38:27.982Z,10.53
2019-05-09T10:41:01.735Z,9.70
2019-05-09T10:43:53.845Z,10.33
2019-05-09T10:47:02.078Z,8.63
2019-05-09T10:49:32.756Z,8.87
2019-05-09T10:52:08.628Z,9.83
2019-05-09T10:54:39.366Z,12.27
2019-05-09T10:57:11.080Z,8.97
2019-05-09T10:59:42.721Z,9.90
2019-05-09T11:02:17.377Z,11.00
2019-05-09T11:04:49.136Z,10.60
2019-05-09T11:07:21.961Z,12.53
2019-05-09T11:09:54.198Z,8.67
2019-05-09T11:12:27.572Z,10.57
2019-05-09T11:15:00.005Z,12.27
2019-05-09T11:17:32.078Z,10.77
2019-05-09T11:20:04.209Z,8.30
2019-05-09T11:22:38.625Z,7.53
2019-05-09T11:25:09.833Z,10.70
2019-05-09T11:27:41.830Z,8.67
2019-05-09T11:30:14.290Z,9.97
2019-05-09T11:32:49.338Z,8.97
2019-05-09T11:35:21.436Z,8.20
2019-05-09T11:37:53.558Z,12.03
2019-05-09T11:40:25.615Z,9.50
2019-05-09T11:42:57.722Z,11.00
2019-05-09T11:45:30.118Z,11.97
2019-05-09T11:48:01.955Z,12.53
2019-05-09T11:50:34.194Z,12.83
2019-05-09T11:53:08.673Z,16.97
2019-05-09T11:55:43.111Z,15.10
2019-05-09T11:58:13.512Z,12.93
2019-05-09T12:00:48.104Z,15.93
2019-05-09T12:03:19.281Z,15.60
2019-05-09T12:05:51.328Z,9.27
2019-05-09T12:08:23.487Z,12.43
2019-05-09T12:10:57.731Z,11.13
2019-05-09T12:13:29.071Z,9.97
2019-05-09T12:16:01.059Z,11.90
2019-05-09T12:18:33.236Z,12.37
2019-05-09T12:21:05.257Z,11.40
2019-05-09T12:23:37.768Z,13.50
2019-05-09T12:26:10.623Z,14.07
2019-05-09T12:28:42.738Z,10.80
2019-05-09T12:31:17.811Z,10.53
2019-05-09T12:33:48.709Z,11.60
2019-05-09T12:36:20.866Z,11.60
2019-05-09T12:38:53.147Z,10.20
2019-05-09T12:41:25.207Z,12.53
2019-05-09T12:43:57.690Z,13.17
2019-05-09T12:46:29.767Z,10.83
2019-05-09T12:49:01.864Z,10.03
2019-05-09T12:51:33.903Z,13.13
2019-05-09T12:54:08.526Z,9.87
2019-05-09T12:56:40.808Z,12.50
2019-05-09T12:59:12.539Z,11.40
2019-05-09T13:01:44.536Z,13.20
2019-05-09T13:04:17.685Z,11.10
2019-05-09T13:06:49.938Z,10.87
2019-05-09T13:09:22.083Z,15.93
2019-05-09T13:11:54.148Z,10.50
2019-05-09T13:14:28.413Z,13.57
2019-05-09T13:17:08.628Z,10.30
2019-05-09T13:19:47.990Z,12.97
2019-05-09T13:22:20.565Z,9.97
2019-05-09T13:24:52.610Z,10.60
2019-05-09T13:27:24.345Z,18.47
2019-05-09T13:29:56.356Z,10.53
2019-05-09T13:32:28.320Z,16.33
2019-05-09T13:35:00.083Z,10.43
2019-05-09T13:37:31.723Z,10.53
2019-05-09T13:40:03.420Z,11.63
2019-05-09T13:42:35.391Z,8.77
2019-05-09T13:45:08.239Z,10.77
2019-05-09T13:47:40.575Z,9.63
2019-05-09T13:50:12.453Z,10.43
2019-05-09T13:52:44.164Z,15.23
2019-05-09T13:55:17.875Z,11.83
2019-05-09T13:57:49.445Z,12.93
2019-05-09T14:00:21.319Z,14.23
2019-05-09T14:02:52.915Z,11.33
2019-05-09T14:05:28.910Z,9.70
2019-05-09T14:08:03.487Z,9.13
2019-05-09T14:10:33.387Z,10.27
2019-05-09T14:13:10.044Z,9.30
2019-05-09T14:15:39.166Z,9.90
2019-05-09T14:18:11.162Z,7.50
2019-05-09T14:20:43.558Z,7.07
2019-05-09T14:23:18.945Z,7.13
2019-05-09T14:25:52.100Z,8.10
2019-05-09T14:28:22.997Z,8.10
2019-05-09T14:30:55.823Z,8.17
2019-05-09T14:33:29.584Z,8.97
2019-05-09T14:36:00.898Z,9.47
2019-05-09T14:38:32.546Z,7.83
2019-05-09T14:41:04.885Z,7.97
2019-05-09T14:43:39.349Z,7.43
2019-05-09T14:46:09.986Z,6.60
2019-05-09T14:48:41.641Z,7.40
2019-05-09T14:51:12.859Z,7.90
2019-05-09T14:53:44.096Z,7.07
2019-05-09T14:56:15.876Z,9.53
2019-05-09T14:58:48.608Z,8.47
2019-05-09T15:01:20.311Z,7.00
2019-05-09T15:03:52.271Z,8.07
2019-05-09T15:06:23.627Z,7.53
2019-05-09T15:08:55.293Z,7.40
2019-05-09T15:11:28.129Z,7.20
2019-05-09T15:14:00.894Z,7.70
2019-05-09T15:16:32.681Z,7.50
2019-05-09T15:19:04.208Z,8.27
2019-05-09T15:21:38.273Z,9.43
2019-05-09T15:24:09.432Z,11.50
2019-05-09T15:26:41.205Z,11.17
2019-05-09T15:29:12.733Z,8.60
2019-05-09T15:31:44.541Z,7.93
2019-05-09T15:34:18.487Z,11.07
2019-05-09T15:36:50.664Z,9.70
2019-05-09T15:39:22.326Z,9.20
2019-05-09T15:41:54.481Z,8.70
2019-05-09T15:44:26.307Z,12.63
2019-05-09T15:47:03.667Z,10.60
2019-05-09T15:49:35.331Z,9.87
2019-05-09T15:52:07.474Z,10.40
2019-05-09T15:54:39.175Z,11.80
2019-05-09T15:57:10.962Z,12.40
2019-05-09T15:59:42.571Z,11.33
2019-05-09T16:02:15.420Z,13.30
2019-05-09T16:04:47.522Z,13.13
2019-05-09T16:07:19.278Z,13.67
2019-05-09T16:09:51.028Z,14.17
2019-05-09T16:12:23.123Z,15.10
2019-05-09T16:14:54.498Z,14.53
2019-05-09T16:17:28.312Z,16.30
2019-05-09T16:19:58.827Z,17.03
2019-05-09T16:22:30.607Z,16.57
2019-05-09T16:25:02.447Z,16.30
2019-05-09T16:27:34.270Z,16.87
2019-05-09T16:30:08.450Z,15.53
2019-05-09T16:32:40.058Z,14.93
2019-05-09T16:35:11.673Z,17.80
2019-05-09T16:38:01.602Z,19.27
2019-05-09T16:40:16.098Z,17.47
2019-05-09T16:42:47.588Z,18.03
2019-05-09T16:45:19.328Z,20.77
2019-05-09T16:47:51.290Z,20.47
2019-05-09T16:50:23.285Z,24.53
2019-05-09T16:52:54.430Z,29.10
2019-05-09T16:55:31.403Z,22.37
2019-05-09T16:58:02.725Z,20.53
2019-05-09T17:00:47.765Z,21.07
2019-05-09T17:03:18.611Z,21.60
2019-05-09T17:05:50.221Z,22.07
2019-05-09T17:08:21.957Z,24.93
2019-05-09T17:10:53.575Z,25.97
2019-05-09T17:13:28.684Z,25.37
2019-05-09T17:15:58.918Z,23.80
2019-05-09T17:18:31.658Z,22.10
2019-05-09T17:21:24.475Z,27.87
2019-05-09T17:23:55.532Z,23.97
2019-05-09T17:26:28.454Z,23.73
2019-05-09T17:29:00.220Z,25.53
2019-05-09T17:31:31.962Z,22.47
2019-05-09T17:34:03.688Z,21.53
2019-05-09T17:36:35.606Z,24.23
2019-05-09T17:39:08.473Z,23.07
2019-05-09T17:41:40.547Z,28.63
2019-05-09T17:44:12.654Z,32.03
2019-05-09T17:46:44.912Z,31.50
2019-05-09T17:49:17.469Z,26.87
2019-05-09T17:51:49.315Z,24.43
2019-05-09T17:54:21.087Z,28.97
2019-05-09T17:56:53.200Z,38.33
2019-05-09T17:59:28.979Z,28.17
2019-05-09T18:01:59.417Z,29.77
2019-05-09T18:04:31.678Z,34.67
2019-05-09T18:07:02.735Z,33.63
2019-05-09T18:09:33.891Z,35.13
2019-05-09T18:12:04.992Z,39.80
2019-05-09T18:14:38.158Z,36.20
2019-05-09T18:17:08.764Z,35.60
2019-05-09T18:19:40.054Z,33.47
2019-05-09T18:22:11.349Z,37.50
2019-05-09T18:24:43.145Z,45.40
2019-05-09T18:27:14.248Z,42.47
2019-05-09T18:29:47.405Z,33.67
2019-05-09T18:32:30.350Z,30.70
2019-05-09T18:35:16.027Z,29.60
2019-05-09T18:37:48.235Z,30.97
2019-05-09T18:40:19.951Z,28.53
2019-05-09T18:42:51.499Z,35.80
2019-05-09T18:45:23.972Z,33.37
2019-05-09T18:47:57.850Z,36.47
2019-05-09T18:50:29.023Z,33.53
2019-05-09T18:53:00.646Z,33.73
2019-05-09T18:55:32.462Z,34.30
2019-05-09T18:58:04.177Z,33.57
2019-05-09T19:00:35.889Z,32.97
2019-05-09T19:03:07.764Z,30.43
2019-05-09T19:05:39.679Z,34.70
2019-05-09T19:08:12.419Z,34.27
2019-05-09T19:10:44.125Z,34.90
2019-05-09T19:13:15.896Z,34.57
2019-05-09T19:16:06.548Z,35.97
2019-05-09T19:18:55.494Z,30.47
2019-05-09T19:21:30.603Z,35.63
2019-05-09T19:24:02.236Z,33.50
2019-05-09T19:26:36.899Z,28.03
2019-05-09T19:29:09.545Z,28.43
2019-05-09T19:31:41.355Z,28.90
2019-05-09T19:34:13.287Z,30.27
2019-05-09T19:36:45.675Z,28.17
2019-05-09T19:39:17.676Z,30.33
2019-05-09T19:41:49.925Z,31.03
2019-05-09T19:44:21.638Z,29.67
2019-05-09T19:46:53.603Z,32.07
2019-05-09T19:49:25.398Z,31.10
2019-05-09T19:51:57.111Z,31.23
2019-05-09T19:54:28.739Z,32.27
2019-05-09T19:57:00.789Z,34.23
2019-05-09T19:59:32.620Z,34.67
2019-05-09T20:02:04.683Z,35.47
2019-05-09T20:04:35.842Z,34.57
2019-05-09T20:07:07.229Z,35.27
2019-05-09T20:09:46.781Z,35.07
2019-05-09T20:12:25.858Z,35.03
2019-05-09T20:14:56.852Z,33.87
2019-05-09T20:17:28.086Z,37.43
2019-05-09T20:19:58.990Z,39.30
2019-05-09T20:22:30.006Z,36.80
2019-05-09T20:25:01.194Z,39.33
2019-05-09T20:27:34.056Z,38.97
2019-05-09T20:30:05.700Z,42.77
2019-05-09T20:32:36.912Z,38.27
2019-05-09T20:35:08.266Z,39.53
2019-05-09T20:37:39.562Z,41.10
2019-05-09T20:40:10.971Z,43.33
2019-05-09T20:42:42.258Z,47.43
2019-05-09T20:45:13.734Z,45.40
2019-05-09T20:47:45.809Z,46.80
2019-05-09T20:50:17.599Z,49.67
2019-05-09T20:52:49.416Z,50.20
2019-05-09T20:55:21.156Z,47.93
2019-05-09T20:57:52.675Z,49.80
2019-05-09T21:00:24.156Z,47.63
2019-05-09T21:02:55.662Z,50.13
2019-05-09T21:05:27.089Z,46.10
2019-05-09T21:07:58.979Z,48.40
2019-05-09T21:10:30.316Z,48.47
2019-05-09T21:13:02.238Z,46.73
2019-05-09T21:15:33.603Z,48.77
2019-05-09T21:18:06.453Z,46.57
2019-05-09T21:20:37.769Z,46.77
2019-05-09T21:23:23.976Z,46.17
2019-05-09T21:25:42.819Z,50.70
2019-05-09T21:28:14.079Z,45.67
2019-05-09T21:30:45.436Z,46.10
2019-05-09T21:33:17.276Z,45.20
2019-05-09T21:35:48.338Z,44.03
2019-05-09T21:38:19.839Z,47.07
2019-05-09T21:40:51.602Z,48.07
2019-05-09T21:43:22.661Z,54.50
2019-05-09T21:45:53.648Z,46.40
2019-05-09T21:48:25.150Z,53.60
2019-05-09T21:50:56.134Z,48.07
2019-05-09T21:53:39.995Z,48.73
2019-05-09T21:56:00.321Z,52.70
2019-05-09T21:58:31.678Z,51.77
2019-05-09T22:01:03.107Z,52.33
2019-05-09T22:03:34.406Z,49.93
2019-05-09T22:06:06.245Z,49.60
2019-05-09T22:08:37.305Z,53.20
2019-05-09T22:11:08.350Z,53.27
2019-05-09T22:13:39.593Z,45.80
2019-05-09T22:16:10.836Z,48.80
2019-05-09T22:18:42.638Z,55.40
2019-05-09T22:21:23.378Z,47.00
2019-05-09T22:23:56.742Z,49.33
2019-05-09T22:26:27.483Z,49.93
2019-05-09T22:28:58.594Z,47.33
2019-05-09T22:31:30.300Z,57.13
2019-05-09T22:34:02.197Z,52.17
2019-05-09T22:36:33.752Z,51.87
2019-05-09T22:39:06.353Z,50.33
2019-05-09T22:41:37.421Z,52.67
2019-05-09T22:44:09.075Z,54.20
2019-05-09T22:46:40.841Z,54.00
2019-05-09T22:49:11.979Z,55.67
2019-05-09T22:51:43.137Z,55.73
2019-05-09T22:54:15.207Z,52.63
2019-05-09T22:56:46.143Z,56.00
2019-05-09T22:59:17.190Z,62.13
2019-05-09T23:01:48.096Z,60.43
2019-05-09T23:04:19.203Z,57.83
2019-05-09T23:06:50.938Z,62.57
2019-05-09T23:09:22.093Z,64.07
2019-05-09T23:11:53.174Z,61.17
2019-05-09T23:14:24.243Z,63.37
2019-05-09T23:16:55.171Z,63.90
2019-05-09T23:19:26.819Z,61.10
2019-05-09T23:21:57.942Z,59.60
2019-05-09T23:24:31.348Z,55.97
2019-05-09T23:27:02.710Z,74.80
2019-05-09T23:29:33.929Z,58.27
2019-05-09T23:32:23.902Z,74.63
2019-05-09T23:34:55.487Z,61.73
2019-05-09T23:37:27.497Z,83.03
2019-05-09T23:39:58.687Z,66.07
2019-05-09T23:42:29.774Z,71.07
2019-05-09T23:45:00.932Z,75.03
2019-05-09T23:47:33.622Z,67.37
2019-05-09T23:50:06.094Z,73.93
2019-05-09T23:52:37.030Z,68.80
2019-05-09T23:55:26.410Z,68.70
2019-05-09T23:58:14.919Z,68.77
